createdAt,value
2022-07-29T00:00:14.007Z,99.90
2022-07-29T00:01:19.283Z,99.90
2022-07-29T00:02:21.485Z,99.90
2022-07-29T00:03:23.426Z,99.90
2022-07-29T00:04:25.190Z,99.90
2022-07-29T00:05:27.027Z,99.90
2022-07-29T00:06:28.847Z,99.90
2022-07-29T00:07:31.242Z,99.90
2022-07-29T00:08:32.941Z,99.90
2022-07-29T00:09:50.468Z,99.90
2022-07-29T00:10:53.260Z,99.90
2022-07-29T00:11:57.678Z,99.90
2022-07-29T00:12:59.385Z,99.90
2022-07-29T00:14:01.206Z,99.90
2022-07-29T00:15:03.147Z,99.90
2022-07-29T00:16:05.363Z,99.90
2022-07-29T00:17:07.163Z,99.90
2022-07-29T00:18:09.424Z,99.90
2022-07-29T00:19:11.187Z,99.90
2022-07-29T00:20:14.353Z,99.90
2022-07-29T00:21:16.303Z,99.90
2022-07-29T00:22:18.132Z,99.90
2022-07-29T00:23:20.219Z,99.90
2022-07-29T00:24:22.003Z,99.90
2022-07-29T00:25:23.763Z,99.90
2022-07-29T00:26:26.185Z,99.90
2022-07-29T00:27:27.940Z,99.90
2022-07-29T00:28:29.823Z,99.90
2022-07-29T00:29:33.993Z,99.90
2022-07-29T00:30:36.538Z,99.90
2022-07-29T00:31:38.537Z,99.90
2022-07-29T00:32:40.501Z,99.90
2022-07-29T00:33:42.213Z,99.90
2022-07-29T00:35:02.456Z,99.90
2022-07-29T00:36:04.516Z,99.90
2022-07-29T00:37:06.280Z,99.90
2022-07-29T00:38:09.801Z,99.90
2022-07-29T00:39:11.532Z,99.90
2022-07-29T00:40:13.691Z,99.90
2022-07-29T00:41:16.014Z,99.90
2022-07-29T00:42:18.476Z,99.90
2022-07-29T00:43:20.227Z,99.90
2022-07-29T00:44:21.919Z,99.90
2022-07-29T00:45:23.749Z,99.90
2022-07-29T00:46:25.511Z,99.90
2022-07-29T00:47:27.258Z,99.90
2022-07-29T00:48:28.958Z,99.90
2022-07-29T00:49:30.670Z,99.90
2022-07-29T00:50:33.221Z,99.90
2022-07-29T00:51:39.241Z,99.90
2022-07-29T00:52:43.376Z,99.90
2022-07-29T00:53:45.710Z,99.90
2022-07-29T00:54:47.602Z,99.90
2022-07-29T00:55:49.320Z,99.90
2022-07-29T00:56:51.184Z,99.90
2022-07-29T00:57:54.504Z,99.90
2022-07-29T00:58:58.191Z,99.90
2022-07-29T01:00:00.222Z,99.90
2022-07-29T01:01:02.071Z,99.90
2022-07-29T01:02:04.651Z,99.90
2022-07-29T01:03:06.437Z,99.90
2022-07-29T01:04:08.493Z,99.90
2022-07-29T01:05:11.469Z,99.90
2022-07-29T01:06:13.189Z,99.90
2022-07-29T01:07:15.134Z,99.90
2022-07-29T01:08:18.551Z,99.90
2022-07-29T01:09:34.236Z,99.90
2022-07-29T01:10:44.514Z,99.90
2022-07-29T01:11:48.679Z,99.90
2022-07-29T01:12:52.342Z,99.90
2022-07-29T01:13:54.674Z,99.90
2022-07-29T01:14:57.287Z,99.90
2022-07-29T01:16:07.982Z,99.90
2022-07-29T01:17:27.109Z,99.90
2022-07-29T01:18:34.802Z,99.90
2022-07-29T01:19:42.806Z,99.90
2022-07-29T01:21:06.410Z,99.90
2022-07-29T01:22:29.717Z,99.90
2022-07-29T01:23:57.649Z,99.90
2022-07-29T01:25:38.075Z,99.90
2022-07-29T01:27:05.749Z,99.90
2022-07-29T01:28:17.202Z,99.90
2022-07-29T01:29:49.995Z,99.90
2022-07-29T01:30:54.860Z,99.90
2022-07-29T01:32:03.774Z,99.90
2022-07-29T01:33:11.049Z,99.90
2022-07-29T01:34:25.124Z,99.90
2022-07-29T01:35:34.734Z,99.90
2022-07-29T01:36:44.028Z,99.90
2022-07-29T01:37:55.069Z,99.90
2022-07-29T01:39:19.281Z,99.90
2022-07-29T01:40:22.937Z,99.90
2022-07-29T01:41:27.643Z,99.90
2022-07-29T01:42:36.429Z,99.90
2022-07-29T01:43:49.785Z,99.90
2022-07-29T01:44:59.798Z,99.90
2022-07-29T01:46:08.072Z,99.90
2022-07-29T01:47:21.483Z,99.90
2022-07-29T01:48:28.556Z,99.90
2022-07-29T01:49:36.516Z,99.90
2022-07-29T01:50:47.281Z,99.90
2022-07-29T01:51:59.753Z,99.90
2022-07-29T01:53:07.224Z,99.90
2022-07-29T01:54:32.387Z,99.90
2022-07-29T01:55:39.354Z,99.90
2022-07-29T01:56:44.691Z,99.90
2022-07-29T01:57:50.734Z,99.90
2022-07-29T01:58:55.467Z,99.90
2022-07-29T01:59:59.319Z,99.90
2022-07-29T02:01:01.472Z,99.90
2022-07-29T02:02:05.756Z,99.90
2022-07-29T02:03:12.051Z,99.90
2022-07-29T02:04:26.689Z,99.90
2022-07-29T02:05:33.600Z,99.90
2022-07-29T02:06:38.443Z,99.90
2022-07-29T02:07:41.706Z,99.90
2022-07-29T02:08:45.315Z,99.90
2022-07-29T02:09:50.298Z,99.90
2022-07-29T02:10:53.658Z,99.90
2022-07-29T02:11:58.417Z,99.90
2022-07-29T02:13:01.785Z,99.90
2022-07-29T02:14:05.701Z,99.90
2022-07-29T02:15:11.456Z,99.90
2022-07-29T02:16:14.924Z,99.90
2022-07-29T02:17:25.869Z,99.90
2022-07-29T02:18:31.484Z,99.90
2022-07-29T02:19:34.079Z,99.90
2022-07-29T02:20:37.368Z,99.90
2022-07-29T02:21:41.039Z,99.90
2022-07-29T02:22:45.244Z,99.90
2022-07-29T02:23:50.918Z,99.90
2022-07-29T02:24:54.588Z,99.90
2022-07-29T02:25:58.222Z,99.90
2022-07-29T02:27:01.924Z,99.90
2022-07-29T02:28:04.818Z,99.90
2022-07-29T02:29:09.523Z,99.90
2022-07-29T02:30:13.295Z,99.90
2022-07-29T02:31:16.223Z,99.90
2022-07-29T02:32:18.898Z,99.90
2022-07-29T02:33:21.689Z,99.90
2022-07-29T02:34:25.545Z,99.90
2022-07-29T02:35:27.802Z,99.90
2022-07-29T02:36:37.495Z,99.90
2022-07-29T02:37:40.730Z,99.90
2022-07-29T02:38:53.568Z,99.90
2022-07-29T02:39:56.434Z,99.90
2022-07-29T02:40:59.803Z,99.90
2022-07-29T02:42:08.995Z,99.90
2022-07-29T02:43:11.816Z,99.90
2022-07-29T02:44:19.450Z,99.90
2022-07-29T02:45:22.258Z,99.90
2022-07-29T02:46:36.681Z,99.90
2022-07-29T02:47:48.896Z,99.90
2022-07-29T02:49:22.887Z,99.90
2022-07-29T02:50:33.784Z,99.90
2022-07-29T02:51:46.720Z,99.90
2022-07-29T02:53:01.263Z,99.90
2022-07-29T02:54:08.614Z,99.90
2022-07-29T02:55:16.221Z,99.90
2022-07-29T02:56:21.481Z,99.90
2022-07-29T02:58:00.310Z,99.90
2022-07-29T02:59:10.086Z,99.90
2022-07-29T03:00:13.148Z,99.90
2022-07-29T03:01:22.687Z,99.90
2022-07-29T03:02:26.791Z,99.90
2022-07-29T03:03:33.332Z,99.90
2022-07-29T03:04:36.767Z,99.90
2022-07-29T03:05:38.648Z,99.90
2022-07-29T03:06:42.010Z,99.90
2022-07-29T03:07:47.519Z,99.90
2022-07-29T03:08:51.555Z,99.90
2022-07-29T03:09:54.252Z,99.90
2022-07-29T03:10:56.937Z,99.90
2022-07-29T03:11:59.112Z,99.90
2022-07-29T03:13:01.867Z,99.90
2022-07-29T03:14:05.635Z,99.90
2022-07-29T03:15:09.212Z,99.90
2022-07-29T03:16:11.919Z,99.90
2022-07-29T03:17:14.308Z,99.90
2022-07-29T03:18:16.567Z,99.90
2022-07-29T03:19:19.268Z,99.90
2022-07-29T03:20:21.379Z,99.90
2022-07-29T03:21:23.226Z,99.90
2022-07-29T03:22:25.424Z,99.90
2022-07-29T03:23:28.826Z,99.90
2022-07-29T03:24:38.938Z,99.90
2022-07-29T03:25:44.175Z,99.90
2022-07-29T03:26:45.998Z,99.90
2022-07-29T03:27:48.491Z,99.90
2022-07-29T03:28:50.179Z,99.90
2022-07-29T03:29:51.938Z,99.90
2022-07-29T03:30:55.542Z,99.90
2022-07-29T03:31:57.370Z,99.90
2022-07-29T03:32:59.127Z,99.90
2022-07-29T03:34:00.889Z,99.90
2022-07-29T03:35:03.144Z,99.90
2022-07-29T03:36:05.033Z,99.90
2022-07-29T03:37:07.518Z,99.90
2022-07-29T03:38:09.252Z,99.90
2022-07-29T03:39:14.058Z,99.90
2022-07-29T03:40:22.829Z,99.90
2022-07-29T03:41:25.538Z,99.90
2022-07-29T03:42:34.404Z,99.90
2022-07-29T03:43:39.008Z,99.90
2022-07-29T03:44:52.759Z,99.90
2022-07-29T03:45:57.293Z,99.90
2022-07-29T03:47:02.916Z,99.90
2022-07-29T03:48:11.023Z,99.90
2022-07-29T03:49:15.834Z,99.90
2022-07-29T03:50:20.264Z,99.90
2022-07-29T03:51:34.066Z,99.90
2022-07-29T03:52:36.657Z,99.90
2022-07-29T03:53:38.903Z,99.90
2022-07-29T03:54:41.266Z,99.90
2022-07-29T03:55:46.611Z,99.90
2022-07-29T03:56:51.219Z,99.90
2022-07-29T03:57:53.675Z,99.90
2022-07-29T03:58:56.507Z,99.90
2022-07-29T03:59:58.950Z,99.90
2022-07-29T04:01:00.768Z,99.90
2022-07-29T04:02:04.476Z,99.90
2022-07-29T04:03:10.891Z,99.90
2022-07-29T04:04:14.336Z,99.90
2022-07-29T04:05:17.455Z,99.90
2022-07-29T04:06:19.175Z,99.90
2022-07-29T04:07:20.933Z,99.90
2022-07-29T04:08:22.624Z,99.90
2022-07-29T04:09:24.522Z,99.90
2022-07-29T04:10:31.551Z,99.90
2022-07-29T04:11:34.717Z,99.90
2022-07-29T04:12:56.452Z,99.90
2022-07-29T04:13:58.175Z,99.90
2022-07-29T04:14:59.864Z,99.90
2022-07-29T04:16:01.661Z,99.90
2022-07-29T04:17:05.037Z,99.90
2022-07-29T04:18:06.990Z,99.90
2022-07-29T04:19:08.829Z,99.90
2022-07-29T04:20:14.101Z,99.90
2022-07-29T04:21:15.835Z,99.90
2022-07-29T04:22:17.540Z,99.90
2022-07-29T04:23:19.225Z,99.90
2022-07-29T04:24:21.225Z,99.90
2022-07-29T04:25:23.106Z,99.90
2022-07-29T04:26:24.849Z,99.90
2022-07-29T04:27:26.698Z,99.90
2022-07-29T04:28:28.444Z,99.90
2022-07-29T04:29:30.193Z,99.90
2022-07-29T04:30:33.729Z,99.90
2022-07-29T04:31:35.677Z,99.90
2022-07-29T04:32:37.415Z,99.90
2022-07-29T04:33:39.184Z,99.90
2022-07-29T04:34:41.104Z,99.90
2022-07-29T04:35:47.119Z,99.90
2022-07-29T04:36:52.433Z,99.90
2022-07-29T04:37:54.300Z,99.90
2022-07-29T04:38:56.032Z,99.90
2022-07-29T04:39:58.649Z,99.90
2022-07-29T04:41:00.434Z,99.90
2022-07-29T04:42:02.126Z,99.90
2022-07-29T04:43:05.800Z,99.90
2022-07-29T04:44:08.815Z,99.90
2022-07-29T04:45:10.741Z,99.90
2022-07-29T04:46:12.719Z,99.90
2022-07-29T04:47:14.489Z,99.90
2022-07-29T04:48:16.226Z,99.90
2022-07-29T04:49:17.969Z,99.90
2022-07-29T04:50:19.739Z,99.90
2022-07-29T04:51:21.476Z,99.90
2022-07-29T04:52:23.878Z,99.90
2022-07-29T04:53:26.409Z,99.90
2022-07-29T04:54:28.130Z,99.90
2022-07-29T04:55:29.816Z,99.90
2022-07-29T04:56:31.555Z,99.90
2022-07-29T04:57:33.374Z,99.90
2022-07-29T04:58:38.636Z,99.90
2022-07-29T04:59:40.410Z,99.90
2022-07-29T05:00:42.241Z,99.90
2022-07-29T05:01:43.961Z,99.90
2022-07-29T05:02:45.820Z,99.90
2022-07-29T05:03:47.651Z,99.90
2022-07-29T05:04:49.650Z,99.90
2022-07-29T05:05:51.335Z,99.90
2022-07-29T05:06:53.218Z,99.90
2022-07-29T05:07:54.962Z,99.90
2022-07-29T05:08:56.923Z,99.90
2022-07-29T05:09:58.643Z,99.90
2022-07-29T05:11:11.380Z,99.90
2022-07-29T05:12:14.362Z,99.90
2022-07-29T05:13:17.042Z,99.90
2022-07-29T05:14:19.371Z,99.90
2022-07-29T05:15:21.434Z,99.90
2022-07-29T05:16:23.367Z,99.90
2022-07-29T05:17:25.213Z,99.90
2022-07-29T05:18:27.229Z,99.90
2022-07-29T05:19:28.996Z,99.90
2022-07-29T05:20:31.576Z,99.90
2022-07-29T05:21:33.281Z,99.90
2022-07-29T05:22:34.998Z,99.90
2022-07-29T05:23:36.690Z,99.90
2022-07-29T05:24:38.398Z,99.90
2022-07-29T05:25:42.046Z,99.90
2022-07-29T05:26:45.746Z,99.90
2022-07-29T05:27:47.436Z,99.90
2022-07-29T05:28:52.927Z,99.90
2022-07-29T05:29:54.853Z,99.90
2022-07-29T05:30:57.264Z,99.90
2022-07-29T05:31:59.419Z,99.90
2022-07-29T05:33:02.070Z,99.90
2022-07-29T05:34:03.858Z,99.90
2022-07-29T05:35:07.718Z,99.90
2022-07-29T05:36:09.615Z,99.90
2022-07-29T05:37:11.350Z,99.90
2022-07-29T05:38:13.107Z,99.90
2022-07-29T05:39:15.062Z,99.90
2022-07-29T05:40:17.213Z,99.90
2022-07-29T05:41:19.933Z,99.90
2022-07-29T05:42:21.651Z,99.90
2022-07-29T05:43:23.986Z,99.90
2022-07-29T05:44:25.683Z,99.90
2022-07-29T05:45:28.383Z,99.90
2022-07-29T05:46:30.477Z,99.90
2022-07-29T05:47:32.272Z,99.90
2022-07-29T05:48:34.049Z,99.90
2022-07-29T05:49:35.788Z,99.90
2022-07-29T05:50:37.550Z,99.90
2022-07-29T05:51:46.943Z,99.90
2022-07-29T05:52:48.696Z,99.90
2022-07-29T05:53:51.591Z,99.90
2022-07-29T05:54:53.295Z,99.90
2022-07-29T05:55:55.653Z,99.90
2022-07-29T05:56:58.142Z,99.90
2022-07-29T05:58:00.028Z,99.90
2022-07-29T05:59:01.736Z,99.90
2022-07-29T06:00:04.426Z,99.90
2022-07-29T06:01:06.484Z,99.90
2022-07-29T06:02:08.472Z,99.90
2022-07-29T06:03:10.367Z,99.90
2022-07-29T06:04:12.217Z,99.90
2022-07-29T06:05:16.294Z,99.90
2022-07-29T06:06:19.104Z,99.90
2022-07-29T06:07:21.070Z,99.90
2022-07-29T06:08:22.847Z,99.90
2022-07-29T06:09:24.769Z,99.90
2022-07-29T06:10:27.118Z,99.90
2022-07-29T06:11:29.400Z,99.90
2022-07-29T06:12:31.201Z,99.90
2022-07-29T06:13:33.189Z,99.90
2022-07-29T06:14:36.058Z,99.90
2022-07-29T06:15:37.838Z,99.90
2022-07-29T06:16:39.615Z,99.90
2022-07-29T06:18:00.660Z,99.90
2022-07-29T06:19:03.152Z,99.90
2022-07-29T06:20:07.486Z,99.90
2022-07-29T06:21:10.777Z,99.90
2022-07-29T06:22:12.502Z,99.90
2022-07-29T06:23:14.197Z,99.90
2022-07-29T06:24:17.411Z,99.90
2022-07-29T06:25:20.111Z,99.90
2022-07-29T06:26:30.328Z,99.90
2022-07-29T06:27:33.211Z,99.90
2022-07-29T06:28:35.865Z,99.90
2022-07-29T06:29:37.576Z,99.90
2022-07-29T06:30:40.459Z,99.90
2022-07-29T06:31:42.360Z,99.90
2022-07-29T06:32:44.064Z,99.90
2022-07-29T06:33:45.867Z,99.90
2022-07-29T06:34:48.980Z,99.90
2022-07-29T06:35:53.110Z,99.90
2022-07-29T06:36:57.243Z,99.90
2022-07-29T06:37:59.798Z,99.90
2022-07-29T06:39:02.801Z,99.90
2022-07-29T06:40:24.532Z,99.90
2022-07-29T06:41:26.998Z,99.90
2022-07-29T06:42:28.872Z,99.90
2022-07-29T06:43:45.601Z,99.90
2022-07-29T06:44:52.644Z,99.90
2022-07-29T06:45:54.835Z,99.90
2022-07-29T06:46:57.132Z,99.90
2022-07-29T06:47:58.890Z,99.90
2022-07-29T06:49:02.531Z,99.90
2022-07-29T06:50:05.794Z,99.90
2022-07-29T06:51:11.084Z,99.90
2022-07-29T06:52:12.790Z,99.90
2022-07-29T06:53:14.512Z,99.90
2022-07-29T06:54:16.446Z,99.90
2022-07-29T06:55:25.060Z,99.90
2022-07-29T06:56:27.224Z,99.90
2022-07-29T06:57:28.933Z,99.90
2022-07-29T06:58:31.297Z,99.90
2022-07-29T06:59:35.850Z,99.90
2022-07-29T07:00:38.634Z,99.90
2022-07-29T07:01:42.767Z,99.90
2022-07-29T07:02:44.628Z,99.90
2022-07-29T07:03:46.562Z,99.90
2022-07-29T07:04:48.427Z,99.90
2022-07-29T07:05:52.625Z,99.90
2022-07-29T07:06:56.548Z,99.90
2022-07-29T07:07:58.559Z,99.90
2022-07-29T07:09:00.365Z,99.90
2022-07-29T07:10:02.341Z,99.90
2022-07-29T07:11:04.968Z,99.90
2022-07-29T07:12:07.494Z,99.90
2022-07-29T07:13:09.471Z,99.90
2022-07-29T07:14:11.322Z,99.90
2022-07-29T07:15:13.049Z,99.90
2022-07-29T07:16:14.884Z,99.90
2022-07-29T07:17:16.801Z,99.90
2022-07-29T07:18:19.305Z,99.90
2022-07-29T07:19:21.006Z,99.90
2022-07-29T07:20:22.704Z,99.90
2022-07-29T07:21:30.205Z,99.90
2022-07-29T07:22:35.710Z,99.90
2022-07-29T07:23:40.456Z,99.90
2022-07-29T07:24:42.131Z,99.90
2022-07-29T07:25:43.837Z,99.90
2022-07-29T07:26:45.631Z,99.90
2022-07-29T07:27:47.723Z,99.90
2022-07-29T07:28:49.425Z,99.90
2022-07-29T07:29:51.137Z,99.90
2022-07-29T07:30:53.114Z,99.90
2022-07-29T07:32:00.525Z,99.90
2022-07-29T07:33:03.975Z,99.90
2022-07-29T07:34:06.129Z,99.90
2022-07-29T07:35:09.441Z,99.90
2022-07-29T07:36:11.218Z,99.90
2022-07-29T07:37:12.954Z,99.90
2022-07-29T07:38:15.336Z,99.90
2022-07-29T07:39:17.197Z,99.90
2022-07-29T07:40:19.045Z,99.90
2022-07-29T07:41:21.193Z,99.90
2022-07-29T07:42:23.042Z,99.90
2022-07-29T07:43:24.787Z,99.90
2022-07-29T07:44:26.603Z,99.90
2022-07-29T07:45:28.920Z,99.90
2022-07-29T07:46:30.729Z,99.90
2022-07-29T07:47:32.882Z,99.90
2022-07-29T07:48:36.941Z,99.90
2022-07-29T07:49:39.144Z,99.90
2022-07-29T07:50:44.682Z,99.90
2022-07-29T07:51:50.833Z,99.90
2022-07-29T07:52:55.906Z,99.90
2022-07-29T07:53:57.748Z,99.90
2022-07-29T07:54:59.736Z,99.90
2022-07-29T07:56:10.946Z,99.90
2022-07-29T07:57:13.930Z,99.90
2022-07-29T07:58:15.623Z,99.90
2022-07-29T07:59:18.105Z,99.90
2022-07-29T08:00:19.935Z,99.90
2022-07-29T08:01:25.150Z,99.90
2022-07-29T08:02:26.893Z,99.90
2022-07-29T08:03:28.585Z,99.90
2022-07-29T08:04:30.367Z,99.90
2022-07-29T08:05:32.215Z,99.90
2022-07-29T08:06:35.778Z,99.90
2022-07-29T08:07:37.644Z,99.90
2022-07-29T08:08:39.357Z,99.90
2022-07-29T08:09:41.143Z,99.90
2022-07-29T08:10:56.362Z,99.90
2022-07-29T08:11:59.981Z,99.90
2022-07-29T08:13:06.908Z,99.90
2022-07-29T08:14:08.640Z,99.90
2022-07-29T08:15:10.501Z,99.90
2022-07-29T08:16:13.170Z,99.90
2022-07-29T08:17:15.006Z,99.90
2022-07-29T08:18:16.739Z,99.90
2022-07-29T08:19:18.452Z,99.90
2022-07-29T08:20:20.271Z,99.90
2022-07-29T08:21:22.000Z,99.90
2022-07-29T08:22:23.761Z,99.90
2022-07-29T08:23:31.496Z,99.90
2022-07-29T08:25:05.057Z,99.90
2022-07-29T08:26:11.328Z,99.90
2022-07-29T08:27:40.644Z,99.90
2022-07-29T08:28:36.058Z,99.90
2022-07-29T08:29:39.353Z,99.90
2022-07-29T08:30:41.850Z,99.90
2022-07-29T08:31:43.891Z,99.90
2022-07-29T08:32:54.103Z,99.90
2022-07-29T08:33:57.388Z,99.90
2022-07-29T08:35:01.423Z,99.90
2022-07-29T08:36:03.656Z,99.90
2022-07-29T08:37:05.623Z,99.90
2022-07-29T08:38:07.531Z,99.90
2022-07-29T08:39:09.248Z,99.90
2022-07-29T08:40:12.255Z,99.90
2022-07-29T08:41:14.161Z,99.90
2022-07-29T08:42:17.820Z,99.90
2022-07-29T08:43:20.421Z,99.90
2022-07-29T08:44:30.438Z,99.90
2022-07-29T08:45:48.041Z,99.30
2022-07-29T08:46:51.002Z,97.70
2022-07-29T08:47:53.698Z,99.90
2022-07-29T08:48:56.961Z,99.90
2022-07-29T08:49:58.687Z,98.00
2022-07-29T08:51:01.632Z,99.30
2022-07-29T08:52:04.396Z,99.00
2022-07-29T08:53:08.632Z,99.90
2022-07-29T08:54:11.226Z,99.30
2022-07-29T08:55:16.030Z,99.30
2022-07-29T08:56:24.310Z,99.60
2022-07-29T08:57:27.342Z,99.80
2022-07-29T08:58:36.791Z,99.90
2022-07-29T08:59:43.269Z,97.30
2022-07-29T09:00:55.397Z,99.70
2022-07-29T09:02:01.004Z,99.90
2022-07-29T09:03:05.306Z,99.60
2022-07-29T09:04:12.257Z,98.40
2022-07-29T09:05:14.001Z,93.80
2022-07-29T09:06:17.968Z,93.60
2022-07-29T09:07:20.248Z,97.90
2022-07-29T09:08:22.337Z,94.50
2022-07-29T09:09:24.447Z,93.40
2022-07-29T09:10:26.237Z,93.80
2022-07-29T09:11:29.235Z,93.20
2022-07-29T09:12:36.141Z,90.90
2022-07-29T09:13:39.678Z,91.10
2022-07-29T09:14:42.066Z,88.40
2022-07-29T09:15:43.881Z,88.10
2022-07-29T09:16:53.478Z,85.10
2022-07-29T09:17:57.508Z,84.30
2022-07-29T09:18:59.244Z,85.60
2022-07-29T09:20:11.292Z,86.30
2022-07-29T09:21:35.009Z,81.00
2022-07-29T09:22:41.691Z,84.40
2022-07-29T09:24:10.889Z,82.70
2022-07-29T09:25:13.190Z,77.30
2022-07-29T09:26:14.899Z,79.80
2022-07-29T09:27:26.813Z,77.80
2022-07-29T09:28:28.520Z,76.30
2022-07-29T09:29:33.335Z,79.30
2022-07-29T09:31:02.167Z,77.20
2022-07-29T09:32:08.970Z,77.40
2022-07-29T09:33:11.565Z,81.30
2022-07-29T09:34:16.438Z,77.20
2022-07-29T09:35:27.267Z,75.00
2022-07-29T09:36:29.129Z,72.90
2022-07-29T09:37:30.969Z,74.00
2022-07-29T09:38:33.587Z,74.10
2022-07-29T09:39:46.773Z,73.00
2022-07-29T09:41:03.234Z,75.60
2022-07-29T09:42:07.906Z,72.80
2022-07-29T09:43:14.271Z,73.70
2022-07-29T09:44:16.480Z,73.90
2022-07-29T09:45:32.713Z,73.30
2022-07-29T09:46:34.821Z,73.80
2022-07-29T09:47:48.763Z,72.80
2022-07-29T09:49:13.928Z,71.90
2022-07-29T09:50:16.983Z,74.90
2022-07-29T09:51:28.491Z,71.90
2022-07-29T09:52:51.460Z,72.60
2022-07-29T09:53:53.644Z,68.80
2022-07-29T09:55:09.353Z,72.10
2022-07-29T09:56:11.718Z,70.60
2022-07-29T09:57:30.800Z,66.20
2022-07-29T09:58:36.801Z,67.80
2022-07-29T09:59:50.073Z,66.70
2022-07-29T10:00:54.246Z,64.30
2022-07-29T10:01:57.148Z,66.70
2022-07-29T10:03:02.357Z,65.40
2022-07-29T10:04:04.365Z,65.80
2022-07-29T10:05:16.722Z,66.90
2022-07-29T10:06:18.509Z,66.00
2022-07-29T10:07:20.525Z,65.40
2022-07-29T10:08:27.488Z,63.10
2022-07-29T10:09:29.882Z,62.90
2022-07-29T10:10:37.610Z,61.70
2022-07-29T10:11:49.229Z,58.90
2022-07-29T10:13:08.767Z,57.30
2022-07-29T10:14:12.714Z,57.10
2022-07-29T10:15:15.951Z,58.30
2022-07-29T10:16:18.191Z,58.60
2022-07-29T10:17:20.305Z,58.50
2022-07-29T10:18:22.277Z,57.60
2022-07-29T10:19:24.340Z,58.10
2022-07-29T10:20:27.864Z,58.70
2022-07-29T10:21:35.752Z,59.30
2022-07-29T10:22:54.244Z,59.20
2022-07-29T10:24:01.226Z,59.30
2022-07-29T10:25:03.776Z,61.40
2022-07-29T10:26:05.715Z,61.50
2022-07-29T10:27:09.199Z,61.00
2022-07-29T10:28:15.790Z,63.10
2022-07-29T10:29:18.106Z,62.40
2022-07-29T10:30:21.147Z,64.20
2022-07-29T10:31:36.089Z,64.10
2022-07-29T10:32:38.933Z,64.20
2022-07-29T10:33:45.155Z,65.70
2022-07-29T10:34:56.110Z,63.70
2022-07-29T10:36:15.990Z,62.20
2022-07-29T10:37:39.412Z,62.70
2022-07-29T10:38:53.842Z,65.50
2022-07-29T10:40:25.102Z,66.20
2022-07-29T10:42:05.873Z,63.90
2022-07-29T10:43:30.491Z,63.00
2022-07-29T10:44:34.315Z,64.30
2022-07-29T10:45:36.868Z,65.10
2022-07-29T10:46:41.392Z,65.80
2022-07-29T10:47:43.391Z,70.10
2022-07-29T10:49:08.569Z,70.10
2022-07-29T10:50:16.712Z,64.80
2022-07-29T10:51:51.493Z,67.30
2022-07-29T10:52:54.187Z,64.10
2022-07-29T10:53:56.306Z,64.60
2022-07-29T10:55:01.335Z,64.70
2022-07-29T10:56:06.446Z,66.10
2022-07-29T10:57:15.704Z,72.90
2022-07-29T10:58:19.510Z,75.40
2022-07-29T11:00:43.053Z,70.30
2022-07-29T11:01:52.478Z,78.20
2022-07-29T11:02:57.543Z,78.40
2022-07-29T11:03:59.305Z,88.50
2022-07-29T11:05:09.269Z,95.10
2022-07-29T11:06:14.090Z,99.90
2022-07-29T11:07:17.416Z,99.90
2022-07-29T11:08:26.430Z,99.90
2022-07-29T11:09:37.656Z,99.90
2022-07-29T11:10:41.065Z,99.90
2022-07-29T11:11:44.098Z,99.90
2022-07-29T11:12:53.357Z,99.90
2022-07-29T11:13:57.727Z,99.90
2022-07-29T11:15:02.615Z,99.90
2022-07-29T11:16:06.701Z,99.90
2022-07-29T11:17:10.204Z,99.90
2022-07-29T11:18:17.467Z,99.90
2022-07-29T11:19:26.191Z,99.90
2022-07-29T11:20:38.573Z,99.90
2022-07-29T11:21:53.878Z,99.90
2022-07-29T11:23:00.390Z,99.90
2022-07-29T11:24:30.194Z,99.90
2022-07-29T11:25:50.203Z,99.90
2022-07-29T11:27:08.884Z,99.90
2022-07-29T11:28:22.708Z,99.90
2022-07-29T11:29:25.404Z,99.90
2022-07-29T11:30:49.340Z,99.90
2022-07-29T11:31:57.464Z,99.90
2022-07-29T11:32:59.900Z,99.90
2022-07-29T11:34:30.775Z,99.90
2022-07-29T11:35:37.088Z,99.90
2022-07-29T11:37:08.455Z,99.90
2022-07-29T11:38:32.166Z,99.90
2022-07-29T11:39:38.613Z,99.90
2022-07-29T11:40:42.623Z,99.90
2022-07-29T11:41:44.430Z,99.90
2022-07-29T11:42:47.221Z,99.90
2022-07-29T11:43:50.845Z,99.90
2022-07-29T11:45:41.557Z,99.90
2022-07-29T11:46:49.542Z,99.90
2022-07-29T11:47:55.104Z,99.90
2022-07-29T11:48:57.346Z,99.90
2022-07-29T11:50:04.676Z,99.90
2022-07-29T11:51:13.212Z,99.90
2022-07-29T11:52:15.464Z,99.90
2022-07-29T11:53:17.280Z,99.90
2022-07-29T11:54:27.859Z,99.90
2022-07-29T11:55:32.341Z,99.90
2022-07-29T11:56:39.615Z,99.90
2022-07-29T11:58:03.809Z,99.90
2022-07-29T11:59:08.383Z,99.90
2022-07-29T12:00:12.716Z,99.90
2022-07-29T12:01:18.473Z,99.90
2022-07-29T12:02:37.520Z,99.90
2022-07-29T12:03:39.846Z,99.90
2022-07-29T12:04:55.208Z,99.90
2022-07-29T12:05:57.476Z,99.90
2022-07-29T12:07:04.766Z,99.90
2022-07-29T12:08:12.763Z,99.90
2022-07-29T12:09:16.698Z,99.90
2022-07-29T12:10:20.001Z,99.90
2022-07-29T12:11:31.877Z,99.90
2022-07-29T12:12:35.666Z,99.90
2022-07-29T12:13:41.614Z,99.90
2022-07-29T12:14:46.568Z,99.90
2022-07-29T12:15:57.735Z,99.90
2022-07-29T12:17:02.070Z,99.90
2022-07-29T12:18:18.623Z,99.90
2022-07-29T12:19:20.599Z,99.90
2022-07-29T12:20:27.624Z,99.90
2022-07-29T12:22:05.608Z,99.90
2022-07-29T12:23:10.603Z,99.90
2022-07-29T12:24:15.345Z,99.90
2022-07-29T12:25:34.849Z,99.90
2022-07-29T12:26:37.743Z,99.90
2022-07-29T12:27:40.503Z,99.90
2022-07-29T12:28:42.417Z,99.90
2022-07-29T12:30:00.691Z,99.90
2022-07-29T12:31:02.596Z,99.90
2022-07-29T12:32:07.211Z,99.90
2022-07-29T12:33:21.729Z,99.90
2022-07-29T12:34:25.093Z,99.90
2022-07-29T12:35:27.148Z,99.90
2022-07-29T12:36:28.994Z,99.90
2022-07-29T12:37:41.055Z,99.90
2022-07-29T12:38:44.653Z,99.90
2022-07-29T12:39:46.636Z,99.90
2022-07-29T12:40:50.082Z,99.90
2022-07-29T12:41:52.249Z,99.90
2022-07-29T12:43:17.607Z,99.90
2022-07-29T12:44:19.287Z,99.90
2022-07-29T12:45:30.499Z,99.90
2022-07-29T12:46:32.511Z,99.90
2022-07-29T12:47:51.581Z,99.90
2022-07-29T12:48:55.708Z,99.90
2022-07-29T12:50:22.153Z,99.90
2022-07-29T12:51:44.437Z,99.90
2022-07-29T12:52:46.838Z,99.90
2022-07-29T12:54:08.876Z,99.90
2022-07-29T12:55:11.648Z,99.90
2022-07-29T12:57:51.547Z,99.90
2022-07-29T12:58:53.275Z,99.90
2022-07-29T13:00:11.477Z,99.90
2022-07-29T13:01:18.238Z,99.90
2022-07-29T13:02:23.756Z,99.90
2022-07-29T13:03:25.528Z,99.90
2022-07-29T13:04:31.744Z,99.90
2022-07-29T13:05:44.594Z,99.90
2022-07-29T13:07:04.684Z,99.90
2022-07-29T13:08:20.138Z,99.90
2022-07-29T13:09:24.069Z,99.90
2022-07-29T13:10:25.989Z,99.90
2022-07-29T13:11:36.973Z,99.90
2022-07-29T13:12:39.504Z,99.90
2022-07-29T13:13:52.809Z,99.90
2022-07-29T13:15:18.334Z,99.90
2022-07-29T13:16:20.093Z,99.90
2022-07-29T13:17:32.855Z,99.90
2022-07-29T13:18:38.786Z,99.90
2022-07-29T13:19:48.954Z,99.90
2022-07-29T13:20:50.795Z,99.90
2022-07-29T13:21:52.823Z,99.90
2022-07-29T13:22:55.743Z,99.90
2022-07-29T13:23:57.465Z,99.90
2022-07-29T13:25:04.652Z,99.90
2022-07-29T13:26:08.432Z,99.90
2022-07-29T13:27:10.659Z,99.90
2022-07-29T13:28:12.698Z,99.90
2022-07-29T13:29:14.906Z,99.90
2022-07-29T13:30:16.841Z,99.90
2022-07-29T13:31:19.400Z,99.90
2022-07-29T13:32:28.376Z,99.90
2022-07-29T13:33:31.161Z,99.90
2022-07-29T13:34:32.864Z,99.90
2022-07-29T13:35:34.905Z,99.90
2022-07-29T13:36:41.853Z,99.90
2022-07-29T13:37:43.972Z,99.90
2022-07-29T13:38:45.818Z,99.90
2022-07-29T13:39:51.369Z,99.90
2022-07-29T13:40:54.939Z,99.90
2022-07-29T13:41:57.970Z,99.90
2022-07-29T13:43:01.853Z,99.90
2022-07-29T13:44:03.714Z,99.90
2022-07-29T13:45:07.574Z,99.90
2022-07-29T13:46:09.334Z,99.90
2022-07-29T13:47:11.121Z,99.90
2022-07-29T13:48:13.199Z,99.90
2022-07-29T13:49:14.938Z,99.90
2022-07-29T13:50:16.911Z,99.90
2022-07-29T13:51:18.629Z,99.90
2022-07-29T13:52:20.985Z,99.90
2022-07-29T13:53:26.995Z,99.90
2022-07-29T13:54:29.080Z,99.90
2022-07-29T13:55:31.103Z,99.90
2022-07-29T13:56:33.493Z,99.90
2022-07-29T13:57:35.397Z,99.90
2022-07-29T13:58:37.165Z,99.90
2022-07-29T13:59:46.178Z,99.90
2022-07-29T14:00:50.290Z,99.90
2022-07-29T14:01:52.235Z,99.90
2022-07-29T14:02:54.003Z,99.90
2022-07-29T14:03:55.873Z,99.90
2022-07-29T14:04:57.817Z,99.90
2022-07-29T14:06:00.932Z,99.90
2022-07-29T14:07:03.990Z,99.90
2022-07-29T14:08:05.803Z,99.90